CheckWX is a tool to help pilots better visualize weather data.  It is not intended as a substitute for an official pre-flight weather briefing.

01:27:52 UTC

DRRN METAR
Diori Hamani International Airport
Niamey, Niger
Current

28 mins ago

DRRN 240100Z 36005KT 8000 NSC 22/M10 Q1010 NOSIG
Observed
Feb-24 @ 01:00 UTC
Wind
  • 360° at 5 KTS
Visibility
7,998 meters
Flight Rules
MVFR
Cloud Levels
  • Clear skies
Temperature
22°C / 72°F
Dewpoint
-10°C / 14°F
Humidity
11%
Altimeter
29.82" Hg
Pressure
1009.92 hPa
Previous

1 hour ago

DRRN 240000Z 36005KT 8000 NSC 23/M09 Q1011 NOSIG
Observed
Feb-24 @ 00:00 UTC
Wind
  • 360° at 5 KTS
Visibility
7,998 meters
Flight Rules
MVFR
Cloud Levels
  • Clear skies
Temperature
23°C / 73°F
Dewpoint
-9°C / 16°F
Humidity
11%
Altimeter
29.85" Hg
Pressure
1010.92 hPa
Previous

2 hours ago

DRRN 232300Z VRB01KT 8000 NSC 24/M11 Q1011 NOSIG
Observed
Feb-23 @ 23:00 UTC
Wind
  • Variable at 1 KTS
Visibility
7,998 meters
Flight Rules
MVFR
Cloud Levels
  • Clear skies
Temperature
24°C / 75°F
Dewpoint
-11°C / 12°F
Humidity
9%
Altimeter
29.85" Hg
Pressure
1010.92 hPa